createdAt,value
2023-03-22T00:00:02.388Z,13.63
2023-03-22T00:05:09.667Z,12.70
2023-03-22T00:10:15.009Z,15.41
2023-03-22T00:15:22.499Z,12.98
2023-03-22T00:20:31.598Z,12.94
2023-03-22T00:25:36.815Z,13.64
2023-03-22T00:30:42.466Z,13.90
2023-03-22T00:35:51.743Z,13.88
2023-03-22T00:40:56.889Z,13.89
2023-03-22T00:46:04.420Z,14.13
2023-03-22T00:51:11.842Z,13.07
2023-03-22T00:56:18.453Z,13.33
2023-03-22T01:01:38.954Z,13.09
2023-03-22T01:06:44.435Z,12.99
2023-03-22T01:11:49.999Z,13.35
2023-03-22T01:17:00.034Z,12.45
2023-03-22T01:22:06.765Z,13.46
2023-03-22T01:27:13.199Z,14.14
2023-03-22T01:32:18.503Z,13.78
2023-03-22T01:37:29.121Z,14.74
2023-03-22T01:42:34.489Z,13.70
2023-03-22T01:47:54.227Z,14.29
2023-03-22T01:52:59.391Z,13.54
2023-03-22T01:58:10.333Z,12.32
2023-03-22T02:03:49.394Z,12.15
2023-03-22T02:08:59.154Z,12.83
2023-03-22T02:14:34.284Z,12.50
2023-03-22T02:20:17.681Z,11.79
2023-03-22T02:25:30.433Z,13.09
2023-03-22T02:30:57.360Z,12.95
2023-03-22T02:36:40.473Z,12.99
2023-03-22T02:42:03.955Z,12.11
2023-03-22T02:47:29.852Z,13.28
2023-03-22T02:52:57.557Z,12.28
2023-03-22T02:58:10.094Z,12.33
2023-03-22T03:03:22.355Z,11.82
2023-03-22T03:08:29.648Z,11.95
2023-03-22T03:13:37.596Z,13.06
2023-03-22T03:19:09.000Z,12.58
2023-03-22T03:24:29.360Z,12.79
2023-03-22T03:29:47.057Z,11.97
2023-03-22T03:35:08.828Z,13.81
2023-03-22T03:40:19.824Z,13.51
2023-03-22T03:45:27.594Z,12.68
2023-03-22T03:50:34.636Z,13.31
2023-03-22T03:55:40.920Z,12.48
2023-03-22T04:00:47.827Z,12.92
2023-03-22T04:06:02.382Z,13.24
2023-03-22T04:11:12.026Z,12.06
2023-03-22T04:16:18.891Z,12.48
2023-03-22T04:21:24.154Z,12.62
2023-03-22T04:26:36.558Z,13.33
2023-03-22T04:31:59.462Z,13.26
2023-03-22T04:37:15.509Z,14.21
2023-03-22T04:42:31.859Z,13.30
2023-03-22T04:47:48.080Z,13.62
2023-03-22T04:52:53.490Z,13.03
2023-03-22T04:57:59.292Z,12.91
2023-03-22T05:03:05.810Z,12.43
2023-03-22T05:08:18.346Z,12.84
2023-03-22T05:13:31.104Z,13.57
2023-03-22T05:18:39.201Z,13.16
2023-03-22T05:23:45.935Z,13.07
2023-03-22T05:28:52.894Z,12.47
2023-03-22T05:34:06.122Z,12.96
2023-03-22T05:39:13.805Z,13.01
2023-03-22T05:44:19.783Z,12.25
2023-03-22T05:49:48.126Z,13.30
2023-03-22T05:54:53.537Z,13.52
2023-03-22T05:59:59.673Z,13.46
2023-03-22T06:05:19.771Z,13.37
2023-03-22T06:10:28.366Z,11.87
2023-03-22T06:15:34.218Z,13.70
2023-03-22T06:20:45.588Z,13.80
2023-03-22T06:25:55.921Z,12.30
2023-03-22T06:31:12.461Z,12.18
2023-03-22T06:36:24.804Z,12.06
2023-03-22T06:41:42.457Z,13.63
2023-03-22T06:46:49.239Z,12.91
2023-03-22T06:52:20.757Z,13.27
2023-03-22T06:57:27.627Z,12.16
2023-03-22T07:02:33.446Z,12.11
2023-03-22T07:08:04.760Z,12.69
2023-03-22T07:13:13.290Z,12.45
2023-03-22T07:18:18.920Z,13.22
2023-03-22T07:23:25.293Z,12.12
2023-03-22T07:28:36.892Z,13.14
2023-03-22T07:33:43.033Z,12.35
2023-03-22T07:38:49.250Z,12.75
2023-03-22T07:44:15.214Z,13.25
2023-03-22T07:49:42.779Z,12.61
2023-03-22T07:54:54.480Z,12.15
2023-03-22T08:00:00.465Z,12.68
2023-03-22T08:05:20.073Z,13.54
2023-03-22T08:10:35.304Z,12.98
2023-03-22T08:15:42.207Z,12.81
2023-03-22T08:20:48.747Z,13.24
2023-03-22T08:25:58.904Z,13.07
2023-03-22T08:31:04.386Z,13.37
2023-03-22T08:36:12.247Z,12.70
2023-03-22T08:41:24.892Z,14.05
2023-03-22T08:46:31.283Z,13.55
2023-03-22T08:51:36.002Z,13.73
2023-03-22T08:57:10.760Z,14.69
2023-03-22T09:02:52.402Z,13.90
2023-03-22T09:08:05.863Z,13.52
2023-03-22T09:13:23.266Z,15.09
2023-03-22T09:18:37.413Z,14.47
2023-03-22T09:23:49.193Z,14.11
2023-03-22T09:28:57.263Z,14.44
2023-03-22T09:34:04.075Z,15.30
2023-03-22T09:39:11.504Z,14.76
2023-03-22T09:44:43.144Z,15.79
2023-03-22T09:50:05.205Z,16.87
2023-03-22T09:55:24.116Z,17.38
2023-03-22T10:00:52.945Z,17.95
2023-03-22T10:06:25.775Z,17.62
2023-03-22T10:11:38.259Z,17.13
2023-03-22T10:16:46.482Z,16.95
2023-03-22T10:21:55.478Z,17.31
2023-03-22T10:27:02.288Z,17.01
2023-03-22T10:32:19.555Z,17.89
2023-03-22T10:37:34.502Z,17.34
2023-03-22T10:42:41.287Z,17.55
2023-03-22T10:47:59.449Z,17.67
2023-03-22T10:53:26.863Z,18.67
2023-03-22T10:58:34.949Z,18.49
2023-03-22T11:03:53.237Z,18.27
2023-03-22T11:09:15.836Z,18.19
2023-03-22T11:14:38.233Z,18.56
2023-03-22T11:19:57.284Z,18.04
2023-03-22T11:25:05.104Z,18.37
2023-03-22T11:30:30.716Z,18.74
2023-03-22T11:35:40.397Z,18.64
2023-03-22T11:40:55.753Z,18.54
2023-03-22T11:46:04.485Z,18.69
2023-03-22T11:51:19.996Z,19.05
2023-03-22T11:56:32.905Z,19.09
2023-03-22T12:01:45.984Z,18.88
2023-03-22T12:06:56.794Z,19.48
2023-03-22T12:12:06.125Z,19.59
2023-03-22T12:17:38.704Z,20.23
2023-03-22T12:22:59.638Z,18.56
2023-03-22T12:28:13.385Z,18.63
2023-03-22T12:33:21.342Z,17.64
2023-03-22T12:38:41.912Z,18.66
2023-03-22T12:44:02.052Z,17.64
2023-03-22T12:49:40.005Z,18.74
2023-03-22T12:54:46.401Z,18.52
2023-03-22T12:59:55.179Z,18.76
2023-03-22T13:05:06.139Z,17.76
2023-03-22T13:10:31.663Z,18.21
2023-03-22T13:15:42.516Z,15.26
2023-03-22T13:21:17.682Z,13.13
2023-03-22T13:26:29.702Z,13.96
2023-03-22T13:32:02.527Z,13.67
2023-03-22T13:37:26.681Z,13.12
2023-03-22T13:42:45.041Z,12.67
2023-03-22T13:48:15.303Z,13.72
2023-03-22T13:53:37.982Z,14.47
2023-03-22T13:58:54.324Z,13.44
2023-03-22T14:04:09.108Z,13.54
2023-03-22T14:09:28.173Z,15.47
2023-03-22T14:14:45.311Z,12.74
2023-03-22T14:19:53.785Z,14.51
